TimeEST,TemperatureF,Dew PointF,Humidity,Sea Level PressureIn,VisibilityMPH,Wind Direction,Wind SpeedMPH,Gust SpeedMPH,PrecipitationIn,Events,Conditions,WindDirDegrees,DateUTC
12:15 AM,17.6,14.0,86,30.16,10.0,Calm,Calm,-,N/A,,Clear,0,2014-01-31 05:15:00
12:35 AM,17.6,14.0,86,30.16,10.0,Calm,Calm,-,N/A,,Clear,0,2014-01-31 05:35:00
12:55 AM,17.6,14.0,86,30.16,10.0,Calm,Calm,-,N/A,,Clear,0,2014-01-31 05:55:00
1:15 AM,17.6,14.0,86,30.17,10.0,Calm,Calm,-,N/A,,Clear,0,2014-01-31 06:15:00
1:35 AM,17.6,14.0,86,30.17,10.0,Calm,Calm,-,N/A,,Clear,0,2014-01-31 06:35:00
1:55 AM,15.8,14.0,93,30.17,10.0,Calm,Calm,-,N/A,,Clear,0,2014-01-31 06:55:00
2:15 AM,15.8,12.2,86,30.17,10.0,Calm,Calm,-,N/A,,Clear,0,2014-01-31 07:15:00
2:35 AM,15.8,12.2,86,30.16,10.0,Calm,Calm,-,N/A,,Clear,0,2014-01-31 07:35:00
2:55 AM,15.8,12.2,86,30.17,10.0,Calm,Calm,-,N/A,,Clear,0,2014-01-31 07:55:00
3:15 AM,14.0,10.4,86,30.17,10.0,Calm,Calm,-,N/A,,Clear,0,2014-01-31 08:15:00
3:35 AM,14.0,10.4,86,30.17,10.0,Calm,Calm,-,N/A,,Clear,0,2014-01-31 08:35:00
3:55 AM,14.0,10.4,86,30.16,10.0,Calm,Calm,-,N/A,,Clear,0,2014-01-31 08:55:00
4:15 AM,14.0,12.2,93,30.17,10.0,Calm,Calm,-,N/A,,Clear,0,2014-01-31 09:15:00
4:35 AM,15.8,12.2,86,30.17,10.0,Calm,Calm,-,N/A,,Clear,0,2014-01-31 09:35:00
4:55 AM,15.8,12.2,86,30.18,10.0,Calm,Calm,-,N/A,,Clear,0,2014-01-31 09:55:00
5:15 AM,14.0,12.2,93,30.17,10.0,Calm,Calm,-,N/A,,Clear,0,2014-01-31 10:15:00
5:35 AM,15.8,12.2,86,30.17,10.0,Calm,Calm,-,N/A,,Clear,0,2014-01-31 10:35:00
5:55 AM,14.0,12.2,93,30.18,10.0,Calm,Calm,-,N/A,,Clear,0,2014-01-31 10:55:00
6:15 AM,14.0,10.4,86,30.19,10.0,Calm,Calm,-,N/A,,Clear,0,2014-01-31 11:15:00
6:35 AM,14.0,10.4,86,30.19,10.0,Calm,Calm,-,N/A,,Clear,0,2014-01-31 11:35:00
6:55 AM,14.0,12.2,93,30.20,10.0,Calm,Calm,-,N/A,,Clear,0,2014-01-31 11:55:00
7:15 AM,14.0,10.4,86,30.21,10.0,Calm,Calm,-,N/A,,Clear,0,2014-01-31 12:15:00
7:35 AM,12.2,10.4,92,30.22,10.0,Calm,Calm,-,N/A,,Clear,0,2014-01-31 12:35:00
7:55 AM,14.0,10.4,86,30.22,10.0,Calm,Calm,-,N/A,,Clear,0,2014-01-31 12:55:00
8:15 AM,14.0,10.4,86,30.23,10.0,Calm,Calm,-,N/A,,Clear,0,2014-01-31 13:15:00
8:35 AM,17.6,14.0,86,30.24,10.0,Calm,Calm,-,N/A,,Clear,0,2014-01-31 13:35:00
8:55 AM,19.4,14.0,80,30.24,10.0,Calm,Calm,-,N/A,,Clear,0,2014-01-31 13:55:00
9:15 AM,19.4,14.0,80,30.25,10.0,Calm,Calm,-,N/A,,Clear,0,2014-01-31 14:15:00
9:35 AM,21.2,14.0,74,30.25,10.0,Calm,Calm,-,N/A,,Clear,0,2014-01-31 14:35:00
9:55 AM,24.8,14.0,64,30.24,10.0,Calm,Calm,-,N/A,,Clear,0,2014-01-31 14:55:00
10:15 AM,26.6,15.8,64,30.24,10.0,Calm,Calm,-,N/A,,Clear,0,2014-01-31 15:15:00
10:35 AM,28.4,15.8,59,30.25,10.0,Calm,Calm,-,N/A,,Clear,0,2014-01-31 15:35:00
10:55 AM,32.0,14.0,48,30.25,10.0,Calm,Calm,-,N/A,,Clear,0,2014-01-31 15:55:00
11:15 AM,32.0,15.8,51,30.24,10.0,Calm,Calm,-,N/A,,Clear,0,2014-01-31 16:15:00
11:35 AM,35.6,15.8,44,30.23,10.0,WSW,5.8,-,N/A,,Clear,240,2014-01-31 16:35:00
11:55 AM,37.4,14.0,38,30.22,10.0,SSW,5.8,-,N/A,,Scattered Clouds,200,2014-01-31 16:55:00
12:15 PM,39.2,14.0,36,30.22,10.0,WSW,5.8,-,N/A,,Overcast,250,2014-01-31 17:15:00
12:35 PM,39.2,15.8,39,30.21,10.0,WSW,6.9,-,N/A,Rain,Light Rain,240,2014-01-31 17:35:00
12:55 PM,39.2,15.8,39,30.20,10.0,West,4.6,-,N/A,,Overcast,260,2014-01-31 17:55:00
1:15 PM,39.2,15.8,39,30.19,10.0,SW,3.5,-,N/A,,Overcast,230,2014-01-31 18:15:00
1:35 PM,41.0,15.8,36,30.19,10.0,WSW,5.8,-,N/A,,Overcast,250,2014-01-31 18:35:00
1:55 PM,41.0,15.8,36,30.18,10.0,West,4.6,-,N/A,,Mostly Cloudy,260,2014-01-31 18:55:00
2:15 PM,41.0,15.8,36,30.17,10.0,Calm,Calm,-,N/A,,Scattered Clouds,0,2014-01-31 19:15:00
2:35 PM,42.8,17.6,36,30.17,10.0,Calm,Calm,-,N/A,,Partly Cloudy,0,2014-01-31 19:35:00
2:55 PM,42.8,17.6,36,30.17,10.0,Calm,Calm,-,N/A,,Mostly Cloudy,0,2014-01-31 19:55:00
3:15 PM,42.8,17.6,36,30.16,10.0,Calm,Calm,-,N/A,,Overcast,0,2014-01-31 20:15:00
3:35 PM,42.8,19.4,39,30.16,10.0,Calm,Calm,-,N/A,,Overcast,0,2014-01-31 20:35:00
3:55 PM,42.8,19.4,39,30.16,10.0,Calm,Calm,-,N/A,,Overcast,0,2014-01-31 20:55:00
4:15 PM,42.8,19.4,39,30.17,10.0,Calm,Calm,-,N/A,,Overcast,0,2014-01-31 21:15:00
4:35 PM,42.8,19.4,39,30.17,10.0,Calm,Calm,-,N/A,,Overcast,0,2014-01-31 21:35:00
4:55 PM,42.8,19.4,39,30.18,10.0,Calm,Calm,-,N/A,,Overcast,0,2014-01-31 21:55:00
5:15 PM,42.8,19.4,39,30.17,10.0,Calm,Calm,-,N/A,,Mostly Cloudy,0,2014-01-31 22:15:00
5:35 PM,41.0,19.4,42,30.18,10.0,Calm,Calm,-,N/A,,Partly Cloudy,0,2014-01-31 22:35:00
5:55 PM,39.2,19.4,45,30.18,10.0,Calm,Calm,-,N/A,,Clear,0,2014-01-31 22:55:00
6:15 PM,37.4,19.4,48,30.17,10.0,Calm,Calm,-,N/A,,Clear,0,2014-01-31 23:15:00
6:35 PM,35.6,19.4,52,30.17,10.0,Calm,Calm,-,N/A,,Mostly Cloudy,0,2014-01-31 23:35:00
6:55 PM,35.6,19.4,52,30.18,10.0,Calm,Calm,-,N/A,,Overcast,0,2014-01-31 23:55:00
7:15 PM,35.6,21.2,56,30.18,10.0,Calm,Calm,-,N/A,,Overcast,0,2014-02-01 00:15:00
7:35 PM,35.6,23.0,60,30.18,10.0,Calm,Calm,-,N/A,,Overcast,0,2014-02-01 00:35:00
7:55 PM,33.8,21.2,60,30.18,10.0,Calm,Calm,-,N/A,,Overcast,0,2014-02-01 00:55:00
8:15 PM,32.0,23.0,69,30.19,10.0,Calm,Calm,-,N/A,,Scattered Clouds,0,2014-02-01 01:15:00
8:35 PM,32.0,24.8,75,30.19,10.0,Calm,Calm,-,N/A,,Partly Cloudy,0,2014-02-01 01:35:00
8:55 PM,32.0,23.0,69,30.19,10.0,Calm,Calm,-,N/A,,Clear,0,2014-02-01 01:55:00
9:15 PM,30.2,24.8,80,30.19,10.0,Calm,Calm,-,N/A,,Clear,0,2014-02-01 02:15:00
9:35 PM,30.2,23.0,75,30.18,10.0,Calm,Calm,-,N/A,,Clear,0,2014-02-01 02:35:00
9:55 PM,30.2,23.0,75,30.18,10.0,Calm,Calm,-,N/A,,Clear,0,2014-02-01 02:55:00
10:15 PM,28.4,23.0,80,30.18,10.0,Calm,Calm,-,N/A,,Clear,0,2014-02-01 03:15:00
10:35 PM,28.4,23.0,80,30.17,10.0,Calm,Calm,-,N/A,,Clear,0,2014-02-01 03:35:00
10:55 PM,26.6,23.0,86,30.17,10.0,Calm,Calm,-,N/A,,Clear,0,2014-02-01 03:55:00
11:15 PM,26.6,23.0,86,30.16,10.0,Calm,Calm,-,N/A,,Clear,0,2014-02-01 04:15:00
11:35 PM,26.6,23.0,86,30.17,10.0,Calm,Calm,-,N/A,,Clear,0,2014-02-01 04:35:00
11:55 PM,26.6,23.0,86,30.16,10.0,Calm,Calm,-,N/A,,Clear,0,2014-02-01 04:55:00